Time;durP1;ratioP1;P1;durP2;ratioP2;P2;SDS_P1;SDS_P2;PMS_P1;PMS_P2;Temp;Humidity;BMP_temperature;BMP_pressure;BME280_temperature;BME280_humidity;BME280_pressure;Samples;Min_cycle;Max_cycle;Signal;HPM_P1;HPM_P2
2021/05/19 00:02:09;;;;;;;4.70;4.30;;;11.80;99.90;;;;;;10436686;28;20228;-78
2021/05/19 00:07:11;;;;;;;3.90;3.70;;;11.80;99.90;;;;;;10423056;28;20712;-79
2021/05/19 00:12:13;;;;;;;3.50;3.40;;;11.80;99.90;;;;;;10427585;28;20666;-78
2021/05/19 00:17:15;;;;;;;3.87;3.67;;;11.80;99.90;;;;;;10461082;28;20225;-78
2021/05/19 00:22:17;;;;;;;3.50;3.30;;;11.90;99.90;;;;;;10417646;28;20195;-79
2021/05/19 00:27:20;;;;;;;4.17;3.87;;;11.90;99.90;;;;;;10448670;28;20221;-79
2021/05/19 00:32:22;;;;;;;3.43;3.23;;;11.90;99.90;;;;;;10455143;28;20225;-79
2021/05/19 00:37:24;;;;;;;3.37;3.17;;;11.80;99.90;;;;;;10460516;28;20312;-78
2021/05/19 00:42:27;;;;;;;3.60;3.40;;;11.90;99.90;;;;;;10455333;28;20225;-79
2021/05/19 00:47:33;;;;;;;3.50;3.20;;;11.90;99.90;;;;;;10448183;28;20693;-79
2021/05/19 00:52:35;;;;;;;2.97;2.77;;;11.90;99.90;;;;;;10415045;28;20232;-79
2021/05/19 00:57:37;;;;;;;3.07;2.93;;;11.90;99.90;;;;;;10430038;28;20320;-79
2021/05/19 01:02:40;;;;;;;2.60;2.50;;;11.90;99.90;;;;;;10435949;28;20202;-79
2021/05/19 01:09:34;;;;;;;3.03;2.80;;;12.00;99.90;;;;;;10434556;28;20275;-79
2021/05/19 01:13:05;;;;;;;3.13;3.00;;;12.00;99.90;;;;;;10453058;28;20251;-78
2021/05/19 01:18:07;;;;;;;2.87;2.67;;;12.00;99.90;;;;;;10459908;28;20203;-79
2021/05/19 01:23:10;;;;;;;3.23;3.03;;;12.00;99.90;;;;;;10452957;28;20682;-79
2021/05/19 01:28:11;;;;;;;3.17;2.97;;;12.00;99.90;;;;;;10445319;28;20666;-79
2021/05/19 01:33:13;;;;;;;3.10;2.90;;;12.00;99.90;;;;;;10440326;28;20287;-78
2021/05/19 01:38:17;;;;;;;2.77;2.60;;;12.10;99.90;;;;;;10433739;28;20198;-79
2021/05/19 01:43:19;;;;;;;3.07;2.87;;;12.10;99.90;;;;;;10440495;28;20202;-79
2021/05/19 01:48:41;;;;;;;3.60;3.30;;;12.10;99.90;;;;;;10425884;28;20213;-80
2021/05/19 01:53:43;;;;;;;4.40;4.10;;;12.10;99.90;;;;;;10426050;28;20233;-77
2021/05/19 01:58:46;;;;;;;4.43;4.10;;;12.10;99.90;;;;;;10444755;28;20728;-77
2021/05/19 02:03:48;;;;;;;3.00;2.90;;;12.10;99.90;;;;;;10410358;28;20241;-78
2021/05/19 02:08:52;;;;;;;3.73;3.53;;;12.10;99.90;;;;;;10409905;28;20212;-77
2021/05/19 02:13:55;;;;;;;2.47;2.37;;;12.10;99.90;;;;;;10413330;28;20232;-77
2021/05/19 02:18:57;;;;;;;3.50;3.30;;;12.10;99.90;;;;;;10415745;28;20197;-78
2021/05/19 02:24:03;;;;;;;3.10;2.90;;;12.10;99.90;;;;;;10423113;28;20304;-78
2021/05/19 02:29:06;;;;;;;3.30;3.10;;;12.10;99.90;;;;;;10424775;28;20201;-79
2021/05/19 02:34:12;;;;;;;3.03;2.83;;;12.20;99.90;;;;;;10438403;28;20225;-79
2021/05/19 02:39:16;;;;;;;3.70;3.00;;;12.20;99.90;;;;;;10437843;28;20197;-79
2021/05/19 02:44:21;;;;;;;3.57;3.23;;;12.20;99.90;;;;;;10414475;28;20390;-78
2021/05/19 02:49:23;;;;;;;3.40;3.10;;;12.20;99.90;;;;;;10449450;28;20263;-78
2021/05/19 02:54:26;;;;;;;3.47;3.27;;;12.20;99.90;;;;;;10428860;28;20724;-79
2021/05/19 02:59:27;;;;;;;4.30;3.40;;;12.10;99.90;;;;;;10410188;28;20231;-79
2021/05/19 03:04:29;;;;;;;3.63;3.33;;;12.20;99.90;;;;;;10435472;28;20713;-77
2021/05/19 03:09:32;;;;;;;2.90;2.70;;;12.20;99.90;;;;;;10435908;28;20220;-77
2021/05/19 03:14:34;;;;;;;3.37;3.07;;;12.20;99.90;;;;;;10415943;28;20259;-78
2021/05/19 03:19:36;;;;;;;3.27;3.07;;;12.10;99.90;;;;;;10414978;28;20236;-77
2021/05/19 03:24:38;;;;;;;3.10;2.80;;;12.10;99.90;;;;;;10427149;28;20213;-77
2021/05/19 03:29:40;;;;;;;3.20;3.00;;;12.10;99.90;;;;;;10435144;28;20299;-78
2021/05/19 03:34:41;;;;;;;3.70;3.50;;;12.10;99.90;;;;;;10419104;28;20232;-77
2021/05/19 03:39:44;;;;;;;3.03;2.67;;;12.10;99.90;;;;;;10425377;28;20284;-77
2021/05/19 03:44:45;;;;;;;3.63;3.20;;;12.10;99.90;;;;;;10441360;28;20218;-78
2021/05/19 03:49:49;;;;;;;2.90;2.70;;;12.10;99.90;;;;;;10404016;28;20304;-78
2021/05/19 03:55:17;;;;;;;4.63;2.90;;;12.10;99.90;;;;;;10451918;22;20232;-83
2021/05/19 04:00:24;;;;;;;3.07;2.87;;;12.10;99.90;;;;;;10494370;28;20211;-82
2021/05/19 04:05:27;;;;;;;2.67;2.53;;;12.20;99.90;;;;;;10466088;28;20248;-82
2021/05/19 04:10:30;;;;;;;3.10;2.90;;;12.20;99.90;;;;;;10443821;28;20212;-81
2021/05/19 04:15:32;;;;;;;5.27;2.83;;;12.20;99.90;;;;;;10400209;28;20233;-84
2021/05/19 04:20:35;;;;;;;3.00;2.90;;;12.20;99.90;;;;;;10421902;28;20354;-82
2021/05/19 04:25:38;;;;;;;2.63;2.53;;;12.20;99.90;;;;;;10443822;28;20217;-83
2021/05/19 04:30:40;;;;;;;3.20;3.00;;;12.30;99.90;;;;;;10428327;28;20216;-82
2021/05/19 04:35:41;;;;;;;3.13;2.93;;;12.30;99.90;;;;;;10414505;28;20240;-83
2021/05/19 04:40:46;;;;;;;3.03;2.93;;;12.30;99.90;;;;;;10442499;28;20296;-82
2021/05/19 04:45:47;;;;;;;2.83;2.63;;;12.30;99.90;;;;;;10397770;28;20222;-82
2021/05/19 04:50:49;;;;;;;3.40;3.20;;;12.30;99.90;;;;;;10424358;28;20213;-83
2021/05/19 04:55:52;;;;;;;3.10;2.93;;;12.30;99.90;;;;;;10419046;28;20663;-83
2021/05/19 05:00:54;;;;;;;3.50;3.20;;;12.30;99.90;;;;;;10410092;28;20202;-82
2021/05/19 05:05:57;;;;;;;3.23;3.03;;;12.30;99.90;;;;;;10394610;28;20225;-82
2021/05/19 05:11:00;;;;;;;4.27;4.07;;;12.30;99.90;;;;;;10404563;28;20201;-84
2021/05/19 05:16:01;;;;;;;3.83;3.53;;;12.30;99.90;;;;;;10398528;28;20308;-83
2021/05/19 05:21:04;;;;;;;3.20;3.00;;;12.40;99.90;;;;;;10394084;28;20565;-80
2021/05/19 05:26:06;;;;;;;4.27;3.97;;;12.40;99.90;;;;;;10398604;28;20325;-82
2021/05/19 05:31:08;;;;;;;3.40;3.20;;;12.50;99.90;;;;;;10410872;28;20288;-81
2021/05/19 05:36:10;;;;;;;4.37;4.10;;;12.60;99.90;;;;;;10421821;28;20229;-81
2021/05/19 05:41:12;;;;;;;4.13;3.83;;;12.70;99.90;;;;;;10421194;28;20679;-80
2021/05/19 05:46:14;;;;;;;4.43;4.10;;;12.80;99.90;;;;;;10456630;28;20707;-82
2021/05/19 05:51:16;;;;;;;4.63;4.33;;;12.80;99.90;;;;;;10415551;28;20573;-81
2021/05/19 05:56:19;;;;;;;4.03;3.70;;;12.90;99.90;;;;;;10427811;28;20319;-81
2021/05/19 06:01:20;;;;;;;4.63;4.30;;;13.10;99.90;;;;;;10431324;28;20205;-82
2021/05/19 06:06:22;;;;;;;4.57;4.27;;;13.10;99.90;;;;;;10449400;28;20689;-81
2021/05/19 06:11:24;;;;;;;4.10;3.90;;;13.10;99.90;;;;;;10424852;28;20547;-80
2021/05/19 06:16:26;;;;;;;4.73;4.40;;;13.00;99.90;;;;;;10455090;28;20240;-81
2021/05/19 06:21:28;;;;;;;4.77;4.43;;;13.00;99.90;;;;;;10438521;28;20193;-80
2021/05/19 06:26:30;;;;;;;4.23;3.93;;;13.00;99.90;;;;;;10425242;28;20279;-81
2021/05/19 06:31:32;;;;;;;5.20;4.80;;;13.00;99.90;;;;;;10441866;28;20263;-81
2021/05/19 06:36:33;;;;;;;5.33;5.03;;;13.10;99.90;;;;;;10426520;28;20226;-82
2021/05/19 06:41:37;;;;;;;5.30;4.80;;;13.10;99.90;;;;;;10456964;28;20198;-81
2021/05/19 06:46:38;;;;;;;4.60;4.30;;;13.30;99.90;;;;;;10439703;28;20222;-81
2021/05/19 06:51:41;;;;;;;4.10;3.80;;;13.30;99.90;;;;;;10436179;28;20224;-82
2021/05/19 06:56:45;;;;;;;5.00;4.07;;;13.60;99.90;;;;;;10414953;28;20251;-82
2021/05/19 07:01:46;;;;;;;4.20;3.90;;;14.10;99.90;;;;;;10426355;28;20206;-82
2021/05/19 07:06:48;;;;;;;4.20;3.80;;;14.40;99.90;;;;;;10448564;28;20236;-81
2021/05/19 07:11:51;;;;;;;3.53;3.33;;;14.50;99.90;;;;;;10430736;28;20225;-81
2021/05/19 07:16:53;;;;;;;4.07;3.77;;;14.50;99.90;;;;;;10448026;28;20232;-81
2021/05/19 07:22:01;;;;;;;3.90;3.50;;;14.60;99.90;;;;;;10443694;28;20277;-81
2021/05/19 07:27:04;;;;;;;3.87;3.57;;;15.10;99.90;;;;;;10456328;28;20217;-81
2021/05/19 07:32:06;;;;;;;3.20;2.90;;;15.60;99.90;;;;;;10445297;28;20247;-81
2021/05/19 07:37:08;;;;;;;3.83;3.47;;;15.90;99.90;;;;;;10441116;28;20256;-82
2021/05/19 07:42:16;;;;;;;4.50;4.20;;;15.80;99.90;;;;;;10414037;28;20201;-82
2021/05/19 07:47:18;;;;;;;5.90;5.40;;;15.20;99.90;;;;;;10397453;28;20225;-81
2021/05/19 07:52:20;;;;;;;5.30;5.00;;;14.60;99.90;;;;;;10421323;28;20692;-80
2021/05/19 07:57:25;;;;;;;4.60;4.30;;;14.20;99.90;;;;;;10407746;28;20747;-81
2021/05/19 08:02:27;;;;;;;5.60;5.20;;;13.80;99.90;;;;;;10411409;28;20218;-83
2021/05/19 08:07:28;;;;;;;5.40;5.03;;;13.50;99.90;;;;;;10403608;28;20236;-81
2021/05/19 08:12:31;;;;;;;6.47;5.97;;;13.40;99.90;;;;;;10410400;28;20227;-81
2021/05/19 08:17:33;;;;;;;5.60;5.20;;;13.60;99.90;;;;;;10425722;28;20700;-81
2021/05/19 08:22:35;;;;;;;5.70;5.07;;;13.80;99.90;;;;;;10443224;28;20209;-81
2021/05/19 08:27:37;;;;;;;5.40;5.00;;;14.10;99.90;;;;;;10441593;28;20279;-81
2021/05/19 08:32:39;;;;;;;4.97;4.67;;;14.40;99.90;;;;;;10440925;28;20681;-81
2021/05/19 08:37:41;;;;;;;4.40;4.10;;;14.60;99.90;;;;;;10440745;28;20221;-81
2021/05/19 08:42:43;;;;;;;4.03;3.80;;;14.70;99.90;;;;;;10443465;28;20280;-81
2021/05/19 08:47:48;;;;;;;3.70;3.50;;;14.80;99.90;;;;;;10432968;28;20660;-81
2021/05/19 08:52:49;;;;;;;5.23;3.40;;;15.00;99.90;;;;;;10438839;28;20272;-81
2021/05/19 08:57:52;;;;;;;4.43;3.50;;;15.30;99.90;;;;;;10460759;28;20233;-81
2021/05/19 09:03:05;;;;;;;3.77;3.17;;;15.60;99.90;;;;;;10429908;28;20273;-81
2021/05/19 09:08:08;;;;;;;3.17;2.97;;;15.80;99.90;;;;;;10452235;28;20225;-82
2021/05/19 09:13:30;;;;;;;3.17;2.97;;;15.90;99.90;;;;;;10426345;28;20320;-81
2021/05/19 09:18:57;;;;;;;2.80;2.60;;;16.20;99.90;;;;;;10418860;28;20206;-81
2021/05/19 09:24:00;;;;;;;2.10;2.00;;;16.30;99.90;;;;;;10383837;28;20225;-82
2021/05/19 09:29:20;;;;;;;2.43;2.23;;;16.80;99.90;;;;;;10431913;28;20205;-82
2021/05/19 09:34:28;;;;;;;2.50;2.30;;;17.70;99.60;;;;;;10401810;28;20253;-82
2021/05/19 09:39:48;;;;;;;1.70;1.60;;;18.50;97.70;;;;;;10406726;28;20577;-82
2021/05/19 09:44:51;;;;;;;1.77;1.67;;;19.20;93.40;;;;;;10425327;28;20225;-83
2021/05/19 09:49:56;;;;;;;1.80;1.70;;;19.80;91.40;;;;;;10455014;28;20229;-83
2021/05/19 09:55:07;;;;;;;2.10;1.90;;;20.90;88.60;;;;;;10417782;28;20240;-83
2021/05/19 10:00:12;;;;;;;2.00;1.90;;;21.70;81.20;;;;;;10436339;28;20201;-83
2021/05/19 10:05:17;;;;;;;1.83;1.73;;;22.90;79.50;;;;;;10448724;28;20249;-83
2021/05/19 10:10:18;;;;;;;1.67;1.57;;;22.70;72.20;;;;;;10451755;28;20220;-82
2021/05/19 10:15:23;;;;;;;1.80;1.70;;;21.70;74.10;;;;;;10438692;28;20237;-83
2021/05/19 10:20:27;;;;;;;1.87;1.67;;;21.60;67.30;;;;;;10438703;28;20236;-83
2021/05/19 10:25:35;;;;;;;1.47;1.40;;;20.80;71.30;;;;;;10463279;28;20225;-83
2021/05/19 10:30:44;;;;;;;1.43;1.33;;;20.00;69.70;;;;;;10431423;28;20296;-84
2021/05/19 10:35:47;;;;;;;1.77;1.33;;;19.30;68.70;;;;;;10421452;28;20260;-84
2021/05/19 10:40:51;;;;;;;1.20;1.20;;;19.00;66.70;;;;;;10455760;28;20205;-83
2021/05/19 10:45:56;;;;;;;1.37;1.27;;;18.50;70.60;;;;;;10427644;28;20277;-83
2021/05/19 10:51:05;;;;;;;1.60;1.50;;;18.30;70.80;;;;;;10432516;28;20194;-83
2021/05/19 11:01:59;;;;;;;2.47;1.47;;;17.70;71.30;;;;;;10435142;28;20204;-83
2021/05/19 11:07:04;;;;;;;2.10;1.77;;;17.40;70.30;;;;;;10449366;28;20225;-83
2021/05/19 11:12:46;;;;;;;2.17;1.77;;;17.20;69.80;;;;;;10442591;28;20209;-83
2021/05/19 11:17:52;;;;;;;3.47;1.93;;;17.00;70.40;;;;;;10451395;28;20390;-84
2021/05/19 11:22:54;;;;;;;2.23;1.83;;;17.00;71.40;;;;;;10431213;28;20269;-83
2021/05/19 11:27:58;;;;;;;1.90;1.80;;;17.00;78.70;;;;;;10446273;28;20221;-84
2021/05/19 11:33:09;;;;;;;1.80;1.57;;;17.20;75.70;;;;;;10423626;28;20253;-84
2021/05/19 11:38:12;;;;;;;5.40;1.80;;;17.30;65.70;;;;;;10427512;28;20224;-83
2021/05/19 11:43:15;;;;;;;8.10;2.17;;;17.30;73.10;;;;;;10423619;28;20202;-84
2021/05/19 11:48:23;;;;;;;1.63;1.53;;;17.50;71.70;;;;;;10423744;28;20224;-83
2021/05/19 11:53:25;;;;;;;2.10;1.90;;;17.60;70.40;;;;;;10403374;28;20271;-84
2021/05/19 11:58:29;;;;;;;2.37;2.17;;;17.60;69.80;;;;;;10418202;28;20221;-84
2021/05/19 12:03:33;;;;;;;1.57;1.47;;;17.50;75.20;;;;;;10400764;28;20208;-84
2021/05/19 12:08:39;;;;;;;1.80;1.70;;;17.30;75.10;;;;;;10440125;28;20201;-84
2021/05/19 12:13:43;;;;;;;3.17;2.03;;;17.10;73.80;;;;;;10417953;28;20741;-84
2021/05/19 12:18:58;;;;;;;2.20;1.90;;;16.90;73.10;;;;;;10443551;28;20225;-84
2021/05/19 12:24:00;;;;;;;2.33;2.13;;;16.90;71.10;;;;;;10440642;28;20236;-83
2021/05/19 12:29:02;;;;;;;2.97;2.10;;;16.80;67.00;;;;;;10429190;28;20209;-84
2021/05/19 12:34:15;;;;;;;2.43;2.20;;;16.70;65.60;;;;;;10416035;28;20225;-84
2021/05/19 12:39:25;;;;;;;3.03;2.03;;;16.60;66.50;;;;;;10423722;28;20201;-84
2021/05/19 12:44:29;;;;;;;2.07;1.97;;;16.60;70.30;;;;;;10416359;28;20218;-83
2021/05/19 12:49:32;;;;;;;2.17;1.97;;;16.70;67.40;;;;;;10419338;28;20256;-83
2021/05/19 12:54:34;;;;;;;2.60;2.40;;;16.70;70.00;;;;;;10399196;28;20252;-84
2021/05/19 12:59:57;;;;;;;2.17;1.93;;;16.70;68.90;;;;;;10410780;28;20257;-84
2021/05/19 13:05:00;;;;;;;3.03;1.37;;;16.70;68.20;;;;;;10440058;28;20252;-83
2021/05/19 13:10:15;;;;;;;2.30;2.10;;;16.80;67.10;;;;;;10473714;28;20201;-84
2021/05/19 13:15:29;;;;;;;2.00;1.90;;;17.00;64.90;;;;;;10422218;28;20436;-84
2021/05/19 13:20:36;;;;;;;2.60;2.00;;;17.10;61.10;;;;;;10421736;28;20213;-84
2021/05/19 13:25:38;;;;;;;1.90;1.80;;;17.20;62.50;;;;;;10440159;28;20225;-83
2021/05/19 13:30:39;;;;;;;2.30;1.80;;;17.20;64.60;;;;;;10426810;28;20673;-83
2021/05/19 13:41:02;;;;;;;1.90;1.80;;;17.30;61.90;;;;;;10441374;28;20209;-83
2021/05/19 13:46:03;;;;;;;3.50;2.13;;;17.20;63.10;;;;;;10430991;28;20229;-84
2021/05/19 13:51:06;;;;;;;1.83;1.70;;;17.20;61.50;;;;;;10427311;28;20273;-83
2021/05/19 13:56:08;;;;;;;3.30;2.13;;;17.10;68.40;;;;;;10408489;28;20464;-84
2021/05/19 14:01:10;;;;;;;1.70;1.60;;;17.10;62.80;;;;;;10399126;28;20205;-83
2021/05/19 14:06:13;;;;;;;2.57;1.83;;;17.10;67.30;;;;;;10406979;28;20220;-83
2021/05/19 14:11:17;;;;;;;2.17;1.93;;;17.10;64.00;;;;;;10423510;28;20205;-83
2021/05/19 14:16:47;;;;;;;2.00;1.90;;;17.10;62.70;;;;;;10398886;28;20233;-83
2021/05/19 14:27:16;;;;;;;5.30;2.00;;;17.10;65.30;;;;;;10415136;28;20267;-85
2021/05/19 14:32:18;;;;;;;1.67;1.40;;;17.30;67.70;;;;;;10432117;28;20225;-85
2021/05/19 14:38:05;;;;;;;2.27;1.70;;;17.40;67.50;;;;;;10451751;28;20323;-85
2021/05/19 15:04:27;;;;;;;1.50;1.40;;;17.10;74.40;;;;;;10443017;28;20224;-84
2021/05/19 15:09:30;;;;;;;1.77;0.93;;;16.90;73.30;;;;;;10460421;28;20209;-83
2021/05/19 15:14:32;;;;;;;2.37;1.50;;;16.80;74.70;;;;;;10461688;28;20228;-83
2021/05/19 15:19:33;;;;;;;2.17;2.07;;;16.80;71.80;;;;;;10438011;28;20205;-83
2021/05/19 15:24:36;;;;;;;1.80;1.20;;;16.80;73.00;;;;;;10449762;28;20229;-81
2021/05/19 15:29:39;;;;;;;1.47;1.37;;;16.70;72.10;;;;;;10445177;28;20213;-84
2021/05/19 15:34:40;;;;;;;1.30;1.20;;;16.70;71.90;;;;;;10428245;28;20609;-83
2021/05/19 15:39:43;;;;;;;1.53;1.43;;;16.60;72.80;;;;;;10425377;28;20239;-82
2021/05/19 15:44:46;;;;;;;1.50;1.17;;;16.50;74.60;;;;;;10432542;28;20264;-81
2021/05/19 15:49:48;;;;;;;1.37;1.10;;;16.40;74.50;;;;;;10411270;28;20205;-83
2021/05/19 15:54:51;;;;;;;1.60;1.50;;;16.40;73.50;;;;;;10468337;22;20379;-77
2021/05/19 15:59:52;;;;;;;1.60;1.50;;;16.40;75.20;;;;;;10485813;28;20641;-79
2021/05/19 16:04:54;;;;;;;1.50;1.40;;;16.30;76.20;;;;;;10482746;28;20227;-79
2021/05/19 16:09:57;;;;;;;1.13;1.13;;;16.30;74.20;;;;;;10471606;28;20586;-78
2021/05/19 16:14:59;;;;;;;1.63;1.20;;;16.40;72.70;;;;;;10470043;28;20235;-77
2021/05/19 16:20:00;;;;;;;1.27;1.17;;;16.40;71.40;;;;;;10483921;28;20193;-78
2021/05/19 16:25:04;;;;;;;1.43;1.30;;;16.50;72.70;;;;;;10488328;28;20698;-78
2021/05/19 16:30:46;;;;;;;1.40;1.30;;;16.40;70.30;;;;;;10486790;28;20615;-78
2021/05/19 16:35:48;;;;;;;1.40;1.30;;;16.40;71.00;;;;;;10469308;28;20220;-78
2021/05/19 16:40:50;;;;;;;1.50;1.40;;;16.40;73.10;;;;;;10495767;28;20215;-78
2021/05/19 16:45:52;;;;;;;1.23;1.13;;;16.40;71.30;;;;;;10456639;28;20281;-78
2021/05/19 16:50:54;;;;;;;1.67;1.03;;;16.50;71.50;;;;;;10490579;28;20201;-79
2021/05/19 16:55:58;;;;;;;1.00;1.00;;;16.50;73.90;;;;;;10486491;28;20220;-79
2021/05/19 17:01:00;;;;;;;1.73;1.23;;;16.60;72.10;;;;;;10471527;28;20211;-78
2021/05/19 17:06:01;;;;;;;1.50;1.40;;;16.60;71.00;;;;;;10460274;28;20236;-78
2021/05/19 17:11:04;;;;;;;1.37;1.10;;;16.60;71.30;;;;;;10497412;28;20780;-78
2021/05/19 17:16:06;;;;;;;1.47;1.20;;;16.30;71.60;;;;;;10487647;28;20818;-78
2021/05/19 17:21:09;;;;;;;1.40;1.30;;;16.10;72.00;;;;;;10475467;28;20295;-78
2021/05/19 17:26:12;;;;;;;2.10;1.43;;;16.10;74.20;;;;;;10485412;28;20294;-78
2021/05/19 17:31:13;;;;;;;1.40;1.30;;;16.00;71.40;;;;;;10456162;28;20239;-78
2021/05/19 17:36:19;;;;;;;1.73;1.40;;;16.00;75.90;;;;;;10491605;28;20234;-78
2021/05/19 17:41:22;;;;;;;1.50;1.40;;;16.00;73.10;;;;;;10468128;28;20207;-76
2021/05/19 17:46:25;;;;;;;1.63;1.53;;;16.00;74.50;;;;;;10483807;28;20220;-78
2021/05/19 17:51:26;;;;;;;1.50;1.40;;;16.00;73.80;;;;;;10475704;28;20724;-79
2021/05/19 17:56:29;;;;;;;1.50;1.40;;;16.00;69.00;;;;;;10489030;28;20232;-78
2021/05/19 18:01:34;;;;;;;1.10;1.00;;;15.90;70.80;;;;;;10462398;28;20547;-78
2021/05/19 18:06:39;;;;;;;1.50;1.40;;;15.80;74.60;;;;;;10491522;28;20220;-78
2021/05/19 18:11:44;;;;;;;1.40;1.30;;;15.80;71.00;;;;;;10456080;28;20254;-78
2021/05/19 18:16:46;;;;;;;1.40;1.30;;;15.70;73.00;;;;;;10467509;28;20221;-78
2021/05/19 18:21:50;;;;;;;1.30;0.90;;;15.60;74.30;;;;;;10478065;28;20239;-78
2021/05/19 18:26:56;;;;;;;0.80;0.77;;;15.50;77.70;;;;;;10468440;28;20254;-78
2021/05/19 18:32:06;;;;;;;1.07;1.07;;;15.40;75.20;;;;;;10483709;28;20656;-77
2021/05/19 18:37:08;;;;;;;1.17;1.17;;;15.30;71.50;;;;;;10468571;28;20308;-78
2021/05/19 18:42:12;;;;;;;1.30;1.20;;;15.10;75.40;;;;;;10481255;28;20208;-79
2021/05/19 18:47:15;;;;;;;0.90;0.90;;;15.00;77.60;;;;;;10490431;28;20304;-78
2021/05/19 18:52:17;;;;;;;1.00;1.00;;;15.00;79.40;;;;;;10488266;28;20204;-78
2021/05/19 18:57:20;;;;;;;1.70;1.30;;;14.90;76.50;;;;;;10457066;28;20774;-78
2021/05/19 19:02:21;;;;;;;1.67;1.53;;;14.80;78.10;;;;;;10460949;28;20205;-79
2021/05/19 19:07:23;;;;;;;1.57;0.90;;;14.80;81.30;;;;;;10454373;28;20665;-78
2021/05/19 19:12:25;;;;;;;1.67;1.57;;;14.70;76.70;;;;;;10481266;28;20282;-78
2021/05/19 19:17:27;;;;;;;1.80;1.70;;;14.70;83.90;;;;;;10455690;28;20228;-79
2021/05/19 19:22:29;;;;;;;2.00;1.80;;;14.60;77.30;;;;;;10498630;28;20692;-78
2021/05/19 19:27:32;;;;;;;1.83;1.73;;;14.50;79.20;;;;;;10452299;28;20228;-79
2021/05/19 19:32:35;;;;;;;4.53;3.47;;;14.40;80.90;;;;;;10470300;28;20224;-79
2021/05/19 19:37:38;;;;;;;8.27;6.20;;;14.40;78.40;;;;;;10465721;28;20212;-78
2021/05/19 19:42:41;;;;;;;1.83;1.73;;;14.30;79.10;;;;;;10486677;28;20575;-78
2021/05/19 19:47:44;;;;;;;3.77;2.90;;;14.20;79.60;;;;;;10473696;28;20231;-78
2021/05/19 19:52:46;;;;;;;3.37;2.50;;;14.00;81.40;;;;;;10493150;28;20220;-78
2021/05/19 19:57:48;;;;;;;2.23;2.13;;;13.80;81.70;;;;;;10481207;28;21369;-78
2021/05/19 20:02:54;;;;;;;5.50;5.10;;;13.60;82.50;;;;;;10461149;28;20280;-78
2021/05/19 20:07:56;;;;;;;3.53;3.33;;;13.40;83.40;;;;;;10481749;28;20228;-78
2021/05/19 20:12:59;;;;;;;3.00;2.70;;;13.30;84.60;;;;;;10483929;28;20228;-78
2021/05/19 20:18:00;;;;;;;2.30;2.20;;;13.30;83.60;;;;;;10479837;28;20307;-78
2021/05/19 20:23:03;;;;;;;2.70;2.50;;;13.30;83.40;;;;;;10503194;28;20272;-78
2021/05/19 20:28:06;;;;;;;2.23;2.13;;;13.20;83.40;;;;;;10450145;28;20226;-78
2021/05/19 20:33:07;;;;;;;2.87;2.60;;;13.20;84.90;;;;;;10497725;28;20627;-78
2021/05/19 20:38:09;;;;;;;2.67;2.47;;;13.20;84.20;;;;;;10501714;28;20231;-78
2021/05/19 20:43:11;;;;;;;3.60;3.23;;;13.20;85.30;;;;;;10500695;28;20220;-78
2021/05/19 20:48:13;;;;;;;2.63;2.43;;;13.20;85.50;;;;;;10495646;28;20228;-78
2021/05/19 20:53:15;;;;;;;2.77;2.23;;;13.10;84.80;;;;;;10462005;28;20213;-78
2021/05/19 20:58:18;;;;;;;2.40;2.20;;;13.10;84.40;;;;;;10489267;28;20238;-78
2021/05/19 21:03:19;;;;;;;2.80;2.60;;;13.10;84.50;;;;;;10492368;28;20209;-78
2021/05/19 21:08:21;;;;;;;2.10;2.00;;;13.10;84.50;;;;;;10478260;28;20303;-78
2021/05/19 21:13:23;;;;;;;2.70;1.90;;;13.10;85.30;;;;;;10471994;28;20286;-77
2021/05/19 21:18:25;;;;;;;1.97;1.87;;;13.10;83.80;;;;;;10498763;28;20299;-78
2021/05/19 21:23:27;;;;;;;2.40;1.87;;;13.20;84.00;;;;;;10494516;28;20228;-77
2021/05/19 21:28:29;;;;;;;2.03;1.83;;;13.30;84.20;;;;;;10495782;28;20299;-77
2021/05/19 21:33:31;;;;;;;2.40;2.20;;;13.30;82.90;;;;;;10485949;28;20273;-77
2021/05/19 21:38:32;;;;;;;2.87;1.77;;;13.40;84.50;;;;;;10490392;28;20370;-77
2021/05/19 21:43:35;;;;;;;2.17;1.90;;;13.50;85.30;;;;;;10498628;28;20205;-77
2021/05/19 21:48:37;;;;;;;1.90;1.80;;;13.50;87.10;;;;;;10479964;28;20240;-77
2021/05/19 21:53:39;;;;;;;3.10;2.00;;;13.50;84.20;;;;;;10488329;28;20240;-77
2021/05/19 21:58:41;;;;;;;3.30;1.77;;;13.60;86.80;;;;;;10485029;28;20597;-78
2021/05/19 22:03:43;;;;;;;2.73;2.23;;;13.70;86.50;;;;;;10496803;28;20192;-77
2021/05/19 22:08:45;;;;;;;3.33;1.80;;;13.70;85.10;;;;;;10494870;28;20205;-77
2021/05/19 22:13:47;;;;;;;1.60;1.50;;;13.70;85.60;;;;;;10496915;28;20692;-78
2021/05/19 22:18:55;;;;;;;1.93;1.40;;;13.70;85.50;;;;;;10497396;28;20196;-77
2021/05/19 22:29:19;;;;;;;2.83;1.60;;;13.70;85.70;;;;;;10495905;28;20611;-77
2021/05/19 22:34:21;;;;;;;1.90;1.50;;;13.70;86.90;;;;;;10481667;28;20239;-77
2021/05/19 22:39:22;;;;;;;1.90;1.73;;;13.70;85.60;;;;;;10495748;28;20712;-77
2021/05/19 22:44:25;;;;;;;1.73;1.60;;;13.70;84.60;;;;;;10495739;28;20227;-77
2021/05/19 22:49:26;;;;;;;1.80;1.70;;;13.70;86.30;;;;;;10498232;28;20212;-77
2021/05/19 22:54:28;;;;;;;1.20;1.20;;;13.70;87.60;;;;;;10498370;28;20280;-78
2021/05/19 22:59:31;;;;;;;1.50;1.40;;;13.70;86.40;;;;;;10477443;28;20641;-77
2021/05/19 23:04:33;;;;;;;2.40;1.30;;;13.70;85.70;;;;;;10496640;28;20224;-77
2021/05/19 23:09:36;;;;;;;1.67;1.57;;;13.70;84.80;;;;;;10503587;28;20205;-77
2021/05/19 23:14:39;;;;;;;2.20;2.10;;;13.70;85.50;;;;;;10478458;28;20232;-77
2021/05/19 23:19:40;;;;;;;2.33;1.80;;;13.60;85.00;;;;;;10499436;28;20204;-77
2021/05/19 23:24:42;;;;;;;2.13;2.00;;;13.50;85.30;;;;;;10478078;28;20242;-77
2021/05/19 23:29:44;;;;;;;1.67;1.40;;;13.50;85.90;;;;;;10485719;28;20208;-77
2021/05/19 23:34:46;;;;;;;1.93;1.60;;;13.40;86.40;;;;;;10489805;28;20712;-77
2021/05/19 23:39:48;;;;;;;5.50;1.80;;;13.30;84.90;;;;;;10492244;28;20572;-77
2021/05/19 23:44:50;;;;;;;1.10;1.10;;;13.30;87.10;;;;;;10469294;28;20575;-77
2021/05/19 23:49:56;;;;;;;1.90;1.60;;;13.20;86.90;;;;;;10491895;28;20211;-77
2021/05/19 23:54:58;;;;;;;1.57;1.47;;;13.20;86.10;;;;;;10501248;28;20243;-77
